createdAt,value
2023-02-24T00:00:13.449Z,55.03
2023-02-24T00:02:39.921Z,57.95
2023-02-24T00:05:07.252Z,61.60
2023-02-24T00:07:33.724Z,41.63
2023-02-24T00:10:00.235Z,28.13
2023-02-24T00:12:26.795Z,18.08
2023-02-24T00:14:53.302Z,11.38
2023-02-24T00:17:19.885Z,7.07
2023-02-24T00:19:46.612Z,5.35
2023-02-24T00:22:13.234Z,5.22
2023-02-24T00:24:39.775Z,5.18
2023-02-24T00:27:06.882Z,6.75
2023-02-24T00:29:33.481Z,5.93
2023-02-24T00:32:00.730Z,7.20
2023-02-24T00:34:32.179Z,5.60
2023-02-24T00:36:59.674Z,5.03
2023-02-24T00:39:27.869Z,7.70
2023-02-24T00:41:54.798Z,6.25
2023-02-24T00:44:21.313Z,4.32
2023-02-24T00:46:47.806Z,7.28
2023-02-24T00:49:18.311Z,6.57
2023-02-24T00:51:47.707Z,6.13
2023-02-24T00:54:15.251Z,7.93
2023-02-24T00:56:43.860Z,4.03
2023-02-24T00:59:12.710Z,5.90
2023-02-24T01:01:40.079Z,6.07
2023-02-24T01:04:07.845Z,7.43
2023-02-24T01:06:34.542Z,3.97
2023-02-24T01:09:01.365Z,3.80
2023-02-24T01:11:35.313Z,5.90
2023-02-24T01:14:06.086Z,6.43
2023-02-24T01:16:33.487Z,4.88
2023-02-24T01:19:00.815Z,3.20
2023-02-24T01:21:27.800Z,6.80
2023-02-24T01:23:55.101Z,3.53
2023-02-24T01:26:21.569Z,4.53
2023-02-24T01:28:48.118Z,5.05
2023-02-24T01:31:16.773Z,7.90
2023-02-24T01:33:44.469Z,4.95
2023-02-24T01:36:17.725Z,7.07
2023-02-24T01:38:45.244Z,4.20
2023-02-24T01:41:17.197Z,4.60
2023-02-24T01:44:02.572Z,3.38
2023-02-24T01:46:34.810Z,4.25
2023-02-24T01:49:09.538Z,4.35
2023-02-24T01:51:39.954Z,4.80
2023-02-24T01:54:09.709Z,3.65
2023-02-24T01:56:36.445Z,4.45
2023-02-24T01:59:05.088Z,4.38
2023-02-24T02:01:31.814Z,2.90
2023-02-24T02:04:05.595Z,5.07
2023-02-24T02:06:32.528Z,5.05
2023-02-24T02:08:59.754Z,5.30
2023-02-24T02:11:26.493Z,3.87
2023-02-24T02:13:53.790Z,3.60
2023-02-24T02:16:50.900Z,5.10
2023-02-24T02:19:20.484Z,3.88
2023-02-24T02:21:46.897Z,4.03
2023-02-24T02:24:32.398Z,4.97
2023-02-24T02:27:11.623Z,2.55
2023-02-24T02:29:47.328Z,4.25
2023-02-24T02:32:44.890Z,7.03
2023-02-24T02:35:37.092Z,3.95
2023-02-24T02:38:09.600Z,4.90
2023-02-24T02:40:36.121Z,2.78
2023-02-24T02:43:16.732Z,6.75
2023-02-24T02:45:45.602Z,10.98
2023-02-24T02:48:34.100Z,9.82
2023-02-24T02:51:07.544Z,9.55
2023-02-24T02:53:37.497Z,9.13
2023-02-24T02:56:09.840Z,5.90
2023-02-24T02:58:40.619Z,6.40
2023-02-24T03:01:09.861Z,5.85
2023-02-24T03:03:43.574Z,5.68
2023-02-24T03:06:30.233Z,6.90
2023-02-24T03:09:02.639Z,6.43
2023-02-24T03:11:29.531Z,4.63
2023-02-24T03:13:57.150Z,11.68
2023-02-24T03:16:27.229Z,20.23
2023-02-24T03:19:00.318Z,20.42
2023-02-24T03:21:33.293Z,18.95
2023-02-24T03:24:02.269Z,15.43
2023-02-24T03:26:52.926Z,12.40
2023-02-24T03:29:26.692Z,9.30
2023-02-24T03:32:13.546Z,9.73
2023-02-24T03:34:49.115Z,9.23
2023-02-24T03:37:15.706Z,5.30
2023-02-24T03:39:42.800Z,11.10
2023-02-24T03:42:19.212Z,8.07
2023-02-24T03:44:46.774Z,5.63
2023-02-24T03:47:14.897Z,2.77
2023-02-24T03:49:41.542Z,7.35
2023-02-24T03:52:20.614Z,3.33
2023-02-24T03:55:05.541Z,4.15
2023-02-24T03:57:57.365Z,5.25
2023-02-24T04:00:41.170Z,7.70
2023-02-24T04:03:16.698Z,4.20
2023-02-24T04:05:58.148Z,2.83
2023-02-24T04:08:28.075Z,6.28
2023-02-24T04:11:09.884Z,4.95
2023-02-24T04:13:59.968Z,7.45
2023-02-24T04:16:34.241Z,3.13
2023-02-24T04:19:04.942Z,6.50
2023-02-24T04:21:37.610Z,3.30
2023-02-24T04:24:08.234Z,3.40
2023-02-24T04:26:37.334Z,4.13
2023-02-24T04:29:04.271Z,2.60
2023-02-24T04:31:33.531Z,6.25
2023-02-24T04:34:00.839Z,4.78
2023-02-24T04:36:35.485Z,4.65
2023-02-24T04:39:02.198Z,7.07
2023-02-24T04:41:30.033Z,3.20
2023-02-24T04:43:56.774Z,8.45
2023-02-24T04:46:23.447Z,4.72
2023-02-24T04:48:50.013Z,2.92
2023-02-24T04:51:16.603Z,4.70
2023-02-24T04:53:43.133Z,5.97
2023-02-24T04:56:09.916Z,5.55
2023-02-24T04:58:38.804Z,3.88
2023-02-24T05:01:10.203Z,3.25
2023-02-24T05:03:38.134Z,5.63
2023-02-24T05:06:04.969Z,6.07
2023-02-24T05:08:31.818Z,6.80
2023-02-24T05:10:58.818Z,4.13
2023-02-24T05:13:28.477Z,3.53
2023-02-24T05:15:57.312Z,5.32
2023-02-24T05:18:24.758Z,4.68
2023-02-24T05:20:56.243Z,4.55
2023-02-24T05:23:43.332Z,7.78
2023-02-24T05:26:11.912Z,5.57
2023-02-24T05:28:40.229Z,6.10
2023-02-24T05:31:09.750Z,6.28
2023-02-24T05:33:37.852Z,5.25
2023-02-24T05:36:07.323Z,4.63
2023-02-24T05:38:34.701Z,7.63
2023-02-24T05:41:12.771Z,5.70
2023-02-24T05:43:39.282Z,5.57
2023-02-24T05:46:05.963Z,5.60
2023-02-24T05:48:33.500Z,6.10
2023-02-24T05:50:59.972Z,3.22
2023-02-24T05:53:27.348Z,6.85
2023-02-24T05:55:53.913Z,7.03
2023-02-24T05:58:20.416Z,6.50
2023-02-24T06:00:46.982Z,9.48
2023-02-24T06:03:13.603Z,8.02
2023-02-24T06:05:40.108Z,4.07
2023-02-24T06:08:06.642Z,7.75
2023-02-24T06:10:33.693Z,6.35
2023-02-24T06:13:03.822Z,3.20
2023-02-24T06:15:30.467Z,4.80
2023-02-24T06:17:57.011Z,5.43
2023-02-24T06:20:25.236Z,5.38
2023-02-24T06:22:51.816Z,6.22
2023-02-24T06:25:18.351Z,4.90
2023-02-24T06:27:45.067Z,7.25
2023-02-24T06:30:12.377Z,6.32
2023-02-24T06:32:39.394Z,6.07
2023-02-24T06:35:06.243Z,5.15
2023-02-24T06:37:32.803Z,5.13
2023-02-24T06:39:59.450Z,7.22
2023-02-24T06:42:26.008Z,7.75
2023-02-24T06:44:52.613Z,6.53
2023-02-24T06:47:19.116Z,8.30
2023-02-24T06:49:45.690Z,7.13
2023-02-24T06:52:12.257Z,8.82
2023-02-24T06:54:38.849Z,9.35
2023-02-24T06:57:05.441Z,5.32
2023-02-24T06:59:32.419Z,6.10
2023-02-24T07:02:00.441Z,4.85
2023-02-24T07:04:28.878Z,7.22
2023-02-24T07:06:59.964Z,7.30
2023-02-24T07:09:26.966Z,6.55
2023-02-24T07:11:54.976Z,5.18
2023-02-24T07:14:27.041Z,3.70
2023-02-24T07:16:53.776Z,8.95
2023-02-24T07:19:23.887Z,4.85
2023-02-24T07:21:50.940Z,6.75
2023-02-24T07:24:20.577Z,10.30
2023-02-24T07:26:47.226Z,9.25
2023-02-24T07:29:13.814Z,5.88
2023-02-24T07:31:40.684Z,7.07
2023-02-24T07:34:07.314Z,6.10
2023-02-24T07:36:33.923Z,5.05
2023-02-24T07:39:00.546Z,6.72
2023-02-24T07:41:27.981Z,6.45
2023-02-24T07:46:24.320Z,6.25
2023-02-24T07:48:52.665Z,7.57
2023-02-24T07:51:22.166Z,6.38
2023-02-24T07:53:52.314Z,7.60
2023-02-24T07:56:21.773Z,6.03
2023-02-24T07:58:48.619Z,12.63
2023-02-24T08:01:15.218Z,8.15
2023-02-24T08:03:41.874Z,7.78
2023-02-24T08:06:08.623Z,15.75
2023-02-24T08:08:35.066Z,6.95
2023-02-24T08:11:01.614Z,7.35
2023-02-24T08:13:28.120Z,7.85
2023-02-24T08:15:54.638Z,8.48
2023-02-24T08:18:21.312Z,9.98
2023-02-24T08:20:48.436Z,7.32
2023-02-24T08:23:14.951Z,11.73
2023-02-24T08:25:41.466Z,7.85
2023-02-24T08:28:09.878Z,16.55
2023-02-24T08:30:39.528Z,8.48
2023-02-24T08:33:09.825Z,6.47
2023-02-24T08:35:39.285Z,8.20
2023-02-24T08:38:15.517Z,10.48
2023-02-24T08:40:49.641Z,9.77
2023-02-24T08:43:28.612Z,9.50
2023-02-24T08:45:56.989Z,11.60
2023-02-24T08:48:26.767Z,13.50
2023-02-24T08:50:55.310Z,8.60
2023-02-24T08:53:23.170Z,6.10
2023-02-24T08:55:53.378Z,11.52
2023-02-24T08:58:21.513Z,11.95
2023-02-24T09:00:48.053Z,11.13
2023-02-24T09:03:19.689Z,9.35
2023-02-24T09:05:46.325Z,10.48
2023-02-24T09:08:12.921Z,11.98
2023-02-24T09:10:39.940Z,15.27
2023-02-24T09:13:06.487Z,12.27
2023-02-24T09:15:32.999Z,17.02
2023-02-24T09:17:59.604Z,14.10
2023-02-24T09:20:27.053Z,7.93
2023-02-24T09:22:54.984Z,15.70
2023-02-24T09:25:21.829Z,12.48
2023-02-24T09:28:05.686Z,10.70
2023-02-24T09:30:32.378Z,10.63
2023-02-24T09:32:59.062Z,13.55
2023-02-24T09:35:25.834Z,10.13
2023-02-24T09:37:52.383Z,19.17
2023-02-24T09:40:19.084Z,16.83
2023-02-24T09:42:46.271Z,11.75
2023-02-24T09:45:23.868Z,9.98
2023-02-24T09:47:51.210Z,12.85
2023-02-24T09:50:55.466Z,14.60
2023-02-24T09:53:16.846Z,13.02
2023-02-24T09:55:51.178Z,15.25
2023-02-24T09:58:44.097Z,49.17
2023-02-24T10:01:28.977Z,13.02
2023-02-24T10:04:08.753Z,15.32
2023-02-24T10:06:48.122Z,13.48
2023-02-24T10:09:36.402Z,14.02
2023-02-24T10:12:14.849Z,16.88
2023-02-24T10:15:00.973Z,14.45
2023-02-24T10:17:28.559Z,18.02
2023-02-24T10:19:59.457Z,17.73
2023-02-24T10:22:47.013Z,14.13
2023-02-24T10:25:49.730Z,14.38
2023-02-24T10:28:25.537Z,20.17
2023-02-24T10:31:13.167Z,16.90
2023-02-24T10:33:42.830Z,15.68
2023-02-24T10:36:13.778Z,15.60
2023-02-24T10:38:40.565Z,15.68
2023-02-24T10:41:10.081Z,15.25
2023-02-24T10:43:36.796Z,15.45
2023-02-24T10:46:03.765Z,13.60
2023-02-24T10:48:41.502Z,17.10
2023-02-24T10:51:14.969Z,17.63
2023-02-24T10:53:41.707Z,16.65
2023-02-24T10:56:13.249Z,15.55
2023-02-24T10:58:39.820Z,12.65
2023-02-24T11:01:11.692Z,18.15
2023-02-24T11:03:49.072Z,14.27
2023-02-24T11:06:23.734Z,13.20
2023-02-24T11:08:58.121Z,16.38
2023-02-24T11:11:31.809Z,14.25
2023-02-24T11:14:01.426Z,18.52
2023-02-24T11:16:28.049Z,24.23
2023-02-24T11:18:55.730Z,13.48
2023-02-24T11:21:25.557Z,15.07
2023-02-24T11:24:00.295Z,16.08
2023-02-24T11:26:36.126Z,20.42
2023-02-24T11:29:07.364Z,13.18
2023-02-24T11:31:52.617Z,19.25
2023-02-24T11:34:30.144Z,13.38
2023-02-24T11:37:15.331Z,16.55
2023-02-24T11:39:57.013Z,15.95
2023-02-24T11:42:31.515Z,16.88
2023-02-24T11:45:35.504Z,18.90
2023-02-24T11:48:05.153Z,26.77
2023-02-24T11:50:34.489Z,16.80
2023-02-24T11:53:07.930Z,13.70
2023-02-24T11:55:40.197Z,11.43
2023-02-24T11:58:23.737Z,14.60
2023-02-24T12:01:13.850Z,16.10
2023-02-24T12:03:56.832Z,12.10
2023-02-24T12:06:42.239Z,18.05
2023-02-24T12:09:22.377Z,19.42
2023-02-24T12:12:08.595Z,12.38
2023-02-24T12:14:47.471Z,10.45
2023-02-24T12:17:30.841Z,11.82
2023-02-24T12:20:16.933Z,17.30
2023-02-24T12:22:51.456Z,19.27
2023-02-24T12:25:25.100Z,11.77
2023-02-24T12:28:14.014Z,18.52
2023-02-24T12:30:51.587Z,13.20
2023-02-24T12:33:36.434Z,11.60
2023-02-24T12:36:22.529Z,18.08
2023-02-24T12:38:51.816Z,10.75
2023-02-24T12:41:57.267Z,13.25
2023-02-24T12:44:35.588Z,11.55
2023-02-24T12:47:10.526Z,16.95
2023-02-24T12:50:18.563Z,17.48
2023-02-24T12:53:20.411Z,16.58
2023-02-24T12:55:52.888Z,19.63
2023-02-24T12:58:25.224Z,18.63
2023-02-24T13:01:00.215Z,12.57
2023-02-24T13:04:02.328Z,16.30
2023-02-24T13:06:48.936Z,17.38
2023-02-24T13:09:29.319Z,14.15
2023-02-24T13:12:14.591Z,18.15
2023-02-24T13:14:42.351Z,20.45
2023-02-24T13:17:08.868Z,15.32
2023-02-24T13:19:35.532Z,15.38
2023-02-24T13:22:05.709Z,12.82
2023-02-24T13:24:32.780Z,13.00
2023-02-24T13:27:43.839Z,29.88
2023-02-24T13:30:16.151Z,16.95
2023-02-24T13:32:46.457Z,20.48
2023-02-24T13:35:15.594Z,11.80
2023-02-24T13:37:44.863Z,15.07
2023-02-24T13:40:20.297Z,19.00
2023-02-24T13:42:57.121Z,20.73
2023-02-24T13:45:34.134Z,22.95
2023-02-24T13:48:19.541Z,23.63
2023-02-24T13:51:15.331Z,22.88
2023-02-24T13:53:57.687Z,19.55
2023-02-24T13:56:26.757Z,23.55
2023-02-24T13:59:32.687Z,21.45
2023-02-24T14:02:26.871Z,20.55
2023-02-24T14:04:55.960Z,15.90
2023-02-24T14:07:25.790Z,16.10
2023-02-24T14:09:56.713Z,12.52
2023-02-24T14:12:30.286Z,13.02
2023-02-24T14:14:57.694Z,17.70
2023-02-24T14:17:25.674Z,14.30
2023-02-24T14:19:52.319Z,20.63
2023-02-24T14:22:20.643Z,17.60
2023-02-24T14:24:47.910Z,17.67
2023-02-24T14:27:22.319Z,18.30
2023-02-24T14:29:51.694Z,21.70
2023-02-24T14:32:24.357Z,18.20
2023-02-24T14:34:53.014Z,20.80
2023-02-24T14:37:26.628Z,20.05
2023-02-24T14:39:56.679Z,24.27
2023-02-24T14:42:24.501Z,20.38
2023-02-24T14:44:53.736Z,23.70
2023-02-24T14:47:24.184Z,23.15
2023-02-24T14:49:55.002Z,28.35
2023-02-24T14:52:34.896Z,16.05
2023-02-24T14:55:07.567Z,19.40
2023-02-24T14:57:42.787Z,23.58
2023-02-24T15:00:19.781Z,21.35
2023-02-24T15:02:51.492Z,19.42
2023-02-24T15:05:18.656Z,24.88
2023-02-24T15:07:46.004Z,23.15
2023-02-24T15:10:25.376Z,20.83
2023-02-24T15:13:12.734Z,14.43
2023-02-24T15:15:39.490Z,15.13
2023-02-24T15:18:17.691Z,16.90
2023-02-24T15:20:44.505Z,30.40
2023-02-24T15:23:27.054Z,37.78
2023-02-24T15:25:53.625Z,23.95
2023-02-24T15:28:35.059Z,21.75
2023-02-24T15:31:17.359Z,22.63
2023-02-24T15:33:55.537Z,20.33
2023-02-24T15:38:59.935Z,31.88
2023-02-24T15:41:38.610Z,24.60
2023-02-24T15:44:05.109Z,21.42
2023-02-24T15:46:34.355Z,23.45
2023-02-24T15:49:02.063Z,25.23
2023-02-24T15:51:40.283Z,25.48
2023-02-24T15:54:12.434Z,19.40
2023-02-24T15:56:40.709Z,21.85
2023-02-24T15:59:07.232Z,35.80
2023-02-24T16:01:34.243Z,23.83
2023-02-24T16:04:01.621Z,23.95
2023-02-24T16:06:29.059Z,19.08
2023-02-24T16:08:57.461Z,25.50
2023-02-24T16:11:27.646Z,18.88
2023-02-24T16:13:57.724Z,19.90
2023-02-24T16:16:26.157Z,39.58
2023-02-24T16:18:52.988Z,18.00
2023-02-24T16:21:19.809Z,17.33
2023-02-24T16:23:46.441Z,19.55
2023-02-24T16:26:16.940Z,18.20
2023-02-24T16:28:49.267Z,21.88
2023-02-24T16:31:15.865Z,20.88
2023-02-24T16:33:54.004Z,17.35
2023-02-24T16:36:24.214Z,22.65
2023-02-24T16:38:51.114Z,20.45
2023-02-24T16:41:17.891Z,26.58
2023-02-24T16:43:44.378Z,14.27
2023-02-24T16:46:16.856Z,13.48
2023-02-24T16:48:46.844Z,15.98
2023-02-24T16:51:14.099Z,16.83
2023-02-24T16:53:40.852Z,15.00
2023-02-24T16:56:08.276Z,15.25
2023-02-24T16:58:35.667Z,19.00
2023-02-24T17:01:04.149Z,22.25
2023-02-24T17:03:44.738Z,16.75
2023-02-24T17:06:11.688Z,17.63
2023-02-24T17:08:38.516Z,24.42
2023-02-24T17:11:05.256Z,26.20
2023-02-24T17:13:31.806Z,24.77
2023-02-24T17:15:58.554Z,18.63
2023-02-24T17:18:26.130Z,35.08
2023-02-24T17:20:53.385Z,21.38
2023-02-24T17:23:20.463Z,28.50
2023-02-24T17:25:52.966Z,18.77
2023-02-24T17:28:20.025Z,20.90
2023-02-24T17:30:46.930Z,15.20
2023-02-24T17:33:13.624Z,17.00
2023-02-24T17:35:41.556Z,16.55
2023-02-24T17:38:16.240Z,14.48
2023-02-24T17:40:44.551Z,11.45
2023-02-24T17:43:11.361Z,15.68
2023-02-24T17:45:41.216Z,18.15
2023-02-24T17:48:07.845Z,18.55
2023-02-24T17:50:34.735Z,15.07
2023-02-24T17:53:01.260Z,20.60
2023-02-24T17:55:27.868Z,9.05
2023-02-24T17:57:57.033Z,20.42
2023-02-24T18:00:23.806Z,11.23
2023-02-24T18:02:50.494Z,20.88
2023-02-24T18:05:17.095Z,11.02
2023-02-24T18:07:43.747Z,11.35
2023-02-24T18:10:10.961Z,15.85
2023-02-24T18:12:38.474Z,13.93
2023-02-24T18:15:08.942Z,13.80
2023-02-24T18:17:37.762Z,10.25
2023-02-24T18:20:05.912Z,10.50
2023-02-24T18:24:59.076Z,11.93
2023-02-24T18:27:25.824Z,21.90
2023-02-24T18:29:53.305Z,9.45
2023-02-24T18:32:20.036Z,15.60
2023-02-24T18:34:46.830Z,8.98
2023-02-24T18:37:14.014Z,11.93
2023-02-24T18:39:40.527Z,15.73
2023-02-24T18:42:07.264Z,9.55
2023-02-24T18:44:33.941Z,15.60
2023-02-24T18:47:00.780Z,17.05
2023-02-24T18:49:27.334Z,17.58
2023-02-24T18:51:53.931Z,17.25
2023-02-24T18:54:20.527Z,15.73
2023-02-24T18:56:47.045Z,12.15
2023-02-24T18:59:13.617Z,16.65
2023-02-24T19:01:40.305Z,18.10
2023-02-24T19:04:08.373Z,10.63
2023-02-24T19:09:10.330Z,18.97
2023-02-24T19:11:38.605Z,17.17
2023-02-24T19:14:05.496Z,33.45
2023-02-24T19:16:33.212Z,21.17
2023-02-24T19:19:00.394Z,27.08
2023-02-24T19:21:29.328Z,28.70
2023-02-24T19:23:56.207Z,13.18
2023-02-24T19:26:25.507Z,29.60
2023-02-24T19:28:52.969Z,16.80
2023-02-24T19:31:25.480Z,22.05
2023-02-24T19:33:53.361Z,15.15
2023-02-24T19:36:20.725Z,14.20
2023-02-24T19:38:47.452Z,14.10
2023-02-24T19:41:14.021Z,20.30
2023-02-24T19:43:40.705Z,17.95
2023-02-24T19:46:10.181Z,18.58
2023-02-24T19:48:36.892Z,15.98
2023-02-24T19:51:22.399Z,28.88
2023-02-24T19:53:52.805Z,24.17
2023-02-24T19:56:27.665Z,19.92
2023-02-24T19:58:56.294Z,21.85
2023-02-24T20:01:24.018Z,16.35
2023-02-24T20:03:54.786Z,18.55
2023-02-24T20:06:34.217Z,15.35
2023-02-24T20:09:01.699Z,14.60
2023-02-24T20:11:28.924Z,13.10
2023-02-24T20:13:55.472Z,11.75
2023-02-24T20:16:23.285Z,13.02
2023-02-24T20:21:16.908Z,7.75
2023-02-24T20:23:43.608Z,14.63
2023-02-24T20:26:12.184Z,9.13
2023-02-24T20:28:38.800Z,8.10
2023-02-24T20:31:08.418Z,16.77
2023-02-24T20:33:35.306Z,17.60
2023-02-24T20:36:07.485Z,12.57
2023-02-24T20:38:34.117Z,31.65
2023-02-24T20:41:00.791Z,10.45
2023-02-24T20:43:27.795Z,19.85
2023-02-24T20:45:54.932Z,12.98
2023-02-24T20:48:21.929Z,16.30
2023-02-24T20:50:49.936Z,9.90
2023-02-24T20:55:43.551Z,10.30
2023-02-24T20:58:10.572Z,12.48
2023-02-24T21:00:37.160Z,10.73
2023-02-24T21:03:04.335Z,8.63
2023-02-24T21:05:30.815Z,19.10
2023-02-24T21:07:57.355Z,12.85
2023-02-24T21:10:23.886Z,17.85
2023-02-24T21:12:50.795Z,23.13
2023-02-24T21:15:17.391Z,19.40
2023-02-24T21:17:44.209Z,14.23
2023-02-24T21:20:11.565Z,16.70
2023-02-24T21:22:41.452Z,15.07
2023-02-24T21:25:09.466Z,14.27
2023-02-24T21:27:36.825Z,12.00
2023-02-24T21:30:05.673Z,16.25
2023-02-24T21:32:32.456Z,8.55
2023-02-24T21:34:59.124Z,12.32
2023-02-24T21:37:25.875Z,10.20
2023-02-24T21:39:52.421Z,7.45
2023-02-24T21:42:19.270Z,7.35
2023-02-24T21:44:45.904Z,8.48
2023-02-24T21:47:12.398Z,12.00
2023-02-24T21:49:38.976Z,7.38
2023-02-24T21:52:05.785Z,8.00
2023-02-24T21:54:32.764Z,9.27
2023-02-24T21:56:59.404Z,11.40
2023-02-24T21:59:25.982Z,9.05
2023-02-24T22:01:52.631Z,8.25
2023-02-24T22:04:19.168Z,7.38
2023-02-24T22:06:45.804Z,8.07
2023-02-24T22:09:13.986Z,9.20
2023-02-24T22:14:12.525Z,11.57
2023-02-24T22:16:39.893Z,15.30
2023-02-24T22:19:07.063Z,11.63
2023-02-24T22:21:34.064Z,6.90
2023-02-24T22:24:02.983Z,12.80
2023-02-24T22:26:31.046Z,13.98
2023-02-24T22:28:58.373Z,14.57
2023-02-24T22:31:27.907Z,13.03
2023-02-24T22:33:54.477Z,20.33
2023-02-24T22:36:23.750Z,19.33
2023-02-24T22:38:50.770Z,17.80
2023-02-24T22:41:23.289Z,14.93
2023-02-24T22:43:50.624Z,13.65
2023-02-24T22:46:22.038Z,15.10
2023-02-24T22:48:49.012Z,7.68
2023-02-24T22:51:15.958Z,9.45
2023-02-24T22:53:44.458Z,34.08
2023-02-24T22:56:12.964Z,13.65
2023-02-24T22:58:40.145Z,11.40
2023-02-24T23:01:11.746Z,17.42
2023-02-24T23:03:39.075Z,12.02
2023-02-24T23:06:11.085Z,7.87
2023-02-24T23:08:38.588Z,12.82
2023-02-24T23:11:14.650Z,16.95
2023-02-24T23:13:43.849Z,16.02
2023-02-24T23:16:12.694Z,8.23
2023-02-24T23:18:40.125Z,8.50
2023-02-24T23:21:10.036Z,13.07
2023-02-24T23:23:37.875Z,8.50
2023-02-24T23:26:05.327Z,9.30
2023-02-24T23:28:32.090Z,9.80
2023-02-24T23:30:58.730Z,14.68
2023-02-24T23:33:25.819Z,12.85
2023-02-24T23:35:52.290Z,13.02
2023-02-24T23:38:19.018Z,9.60
2023-02-24T23:40:50.630Z,13.10
2023-02-24T23:43:17.940Z,13.20
2023-02-24T23:45:45.057Z,12.05
2023-02-24T23:48:13.852Z,18.77
2023-02-24T23:50:42.424Z,10.30
2023-02-24T23:53:09.276Z,12.75
2023-02-24T23:55:38.251Z,11.18
2023-02-24T23:58:04.971Z,14.70
